Terminal Aerodrome Forecast
Issued by NWS

Home | Current Version | Previous Version | Text Only | Print | Product List | Glossary On
Versions: 1 2 3 4 5 6 7 8 9 10 11 12 13 14 15 16 17 18 19 20 21 22 23 24 25 26 27 28 29 30 31 32 33
000
FTUS45 KBOU 231344 AAB
TAFBJC
TAF AMD
KBJC 231344Z 2314/2412 07016G22KT P6SM SCT050 BKN100
      TEMPO 2315/2317 BKN060 BKN080
     FM231700 06012G20KT P6SM SCT060 SCT080
     FM231900 09010KT P6SM FEW070 SCT220
     FM240200 14008KT P6SM SCT220
     FM240700 23007KT P6SM FEW220=

USA.gov is the U.S. government's official web portal to all federal, state and local government web resources and services.